BNE weather

Brisbane International Airport
Brisbane, Queensland, Australia

Public forecast

Using degrees Celsius for public forecast. Weather courtesy of forecast.io.

METAR (pilot weather report)

Retrieved 2018/04/23 16:30 UTC (17 minutes ago):

YBBN 231630Z 21007KT CAVOK 17/14 Q1014 NOSIG

TAF (pilot weather forecast)

Retrieved 2018/04/23 12:00 UTC (5 hours ago):

TAF YBBN 231102Z 2312/2418 19006KT 9999 FEW025 FM240200 11010KT 9999 -SHRA SCT035 SCT060 FM240900 19006KT 9999 FEW025 FM241400 27004KT 9999 -SHRA BKN045